This is the latest recevied weather packets stored in our database for station/object DA2PK. If no packets are shown the sender has not sent any weather packets the latest 10 day(s).
| Time | Temp. | Humidity | Pressure | Rain* | Wind** | Luminosity | Snow |
|---|---|---|---|---|---|---|---|
| 1777560018 | 20.56° C | 22% | 1026 hPa | 0 mm | - | 495 W/m² | - |
| 1777555818 | 19.44° C | 22% | 1026.6 hPa | 0 mm | - | 602 W/m² | - |
| 1777554618 | 18.89° C | 22% | 1026.7 hPa | 0 mm | - | 626 W/m² | - |
| 1777548023 | 16.67° C | 23% | 1027.7 hPa | 0 mm | - | 658 W/m² | - |
| 1777542620 | 14.44° C | 26% | 1028.5 hPa | 0 mm | - | 580 W/m² | - |
| 1777540819 | 13.89° C | 30% | 1028.9 hPa | 0 mm | - | 524 W/m² | - |
| 1777537819 | 12.78° C | 30% | 1029.3 hPa | 0 mm | - | 447 W/m² | - |
| 1777536020 | 12.22° C | 32% | 1029.4 hPa | 0 mm | - | 383 W/m² | - |
| 1777534259 | 11.67° C | 35% | 1029.8 hPa | 0 mm | - | 313 W/m² | - |
| 1777531220 | 10.56° C | 42% | 1029.7 hPa | 0 mm | - | 197 W/m² | - |
| 1777529420 | 10° C | 47% | 1029.7 hPa | 0 mm | - | 136 W/m² | - |
| 1777527639 | 8.89° C | 51% | 1029.5 hPa | 0 mm | - | 82 W/m² | - |
| 1777518040 | 9.44° C | 51% | 1028.6 hPa | 0 mm | - | 0 W/m² | - |
| 1777513820 | 10° C | 50% | 1028.7 hPa | 0 mm | - | 0 W/m² | - |
| 1777513221 | 10° C | 49% | 1028.5 hPa | 0 mm | - | 0 W/m² | - |
| 1777512618 | 10.56° C | 49% | 1028.5 hPa | 0 mm | - | 0 W/m² | - |
| 1777510220 | 10.56° C | 47% | 1028.5 hPa | 0 mm | - | 0 W/m² | - |
| 1777507822 | 11.11° C | 45% | 1028.5 hPa | 0 mm | - | 0 W/m² | - |
| 1777507222 | 11.67° C | 44% | 1028.4 hPa | 0 mm | - | 0 W/m² | - |
| 1777503021 | 12.22° C | 40% | 1028 hPa | 0 mm | - | 0 W/m² | - |
| 1777501222 | 12.78° C | 40% | 1027.7 hPa | 0 mm | - | 0 W/m² | - |
| 1777498820 | 13.33° C | 39% | 1027.4 hPa | 0 mm | - | 0 W/m² | - |
| 1777496421 | 13.89° C | 37% | 1027.2 hPa | 0 mm | - | 0 W/m² | - |
| 1777495822 | 13.89° C | 36% | 1027.2 hPa | 0 mm | - | 0 W/m² | - |
| 1777494021 | 14.44° C | 36% | 1026.9 hPa | 0 mm | - | 0 W/m² | - |
* Rain latest hour (hover to see other rain measurements)
** Current wind speed in m/s (hover to see current wind gust speed)